sensor_id;sensor_type;location;lat;lon;timestamp;P1;durP1;ratioP1;P2;durP2;ratioP2
27543;SDS011;17996;51.056;3.656;2023-06-26T00:00:28;13.00;;;4.82;;
27543;SDS011;17996;51.056;3.656;2023-06-26T00:02:54;8.18;;;4.20;;
27543;SDS011;17996;51.056;3.656;2023-06-26T00:05:19;11.32;;;4.00;;
27543;SDS011;17996;51.056;3.656;2023-06-26T00:07:45;13.25;;;4.32;;
27543;SDS011;17996;51.056;3.656;2023-06-26T00:10:11;8.65;;;4.30;;
27543;SDS011;17996;51.056;3.656;2023-06-26T00:12:37;11.93;;;4.40;;
27543;SDS011;17996;51.056;3.656;2023-06-26T00:15:02;8.15;;;4.25;;
27543;SDS011;17996;51.056;3.656;2023-06-26T00:17:28;9.98;;;4.80;;
27543;SDS011;17996;51.056;3.656;2023-06-26T00:19:54;11.95;;;4.85;;
27543;SDS011;17996;51.056;3.656;2023-06-26T00:22:20;13.57;;;4.47;;
27543;SDS011;17996;51.056;3.656;2023-06-26T00:24:46;10.10;;;4.70;;
27543;SDS011;17996;51.056;3.656;2023-06-26T00:27:12;9.15;;;4.60;;
27543;SDS011;17996;51.056;3.656;2023-06-26T00:29:37;8.38;;;4.60;;
27543;SDS011;17996;51.056;3.656;2023-06-26T00:32:03;10.90;;;4.63;;
27543;SDS011;17996;51.056;3.656;2023-06-26T00:34:30;10.82;;;4.38;;
27543;SDS011;17996;51.056;3.656;2023-06-26T00:36:55;8.25;;;4.40;;
27543;SDS011;17996;51.056;3.656;2023-06-26T00:39:21;7.50;;;4.28;;
27543;SDS011;17996;51.056;3.656;2023-06-26T00:41:50;11.43;;;4.40;;
27543;SDS011;17996;51.056;3.656;2023-06-26T00:44:18;10.63;;;5.13;;
27543;SDS011;17996;51.056;3.656;2023-06-26T00:46:44;9.25;;;4.88;;
27543;SDS011;17996;51.056;3.656;2023-06-26T00:49:10;10.15;;;4.20;;
27543;SDS011;17996;51.056;3.656;2023-06-26T00:51:37;10.70;;;5.18;;
27543;SDS011;17996;51.056;3.656;2023-06-26T00:54:03;18.05;;;5.57;;
27543;SDS011;17996;51.056;3.656;2023-06-26T00:56:29;13.07;;;5.00;;
27543;SDS011;17996;51.056;3.656;2023-06-26T00:58:56;14.45;;;4.35;;
27543;SDS011;17996;51.056;3.656;2023-06-26T01:01:22;12.48;;;4.90;;
27543;SDS011;17996;51.056;3.656;2023-06-26T01:03:50;10.70;;;4.83;;
27543;SDS011;17996;51.056;3.656;2023-06-26T01:06:18;10.52;;;4.50;;
27543;SDS011;17996;51.056;3.656;2023-06-26T01:08:46;12.07;;;4.80;;
27543;SDS011;17996;51.056;3.656;2023-06-26T01:11:13;12.98;;;4.57;;
27543;SDS011;17996;51.056;3.656;2023-06-26T01:13:40;14.57;;;4.78;;
27543;SDS011;17996;51.056;3.656;2023-06-26T01:18:34;18.33;;;5.25;;
27543;SDS011;17996;51.056;3.656;2023-06-26T01:21:02;13.20;;;5.20;;
27543;SDS011;17996;51.056;3.656;2023-06-26T01:26:20;16.65;;;4.90;;
27543;SDS011;17996;51.056;3.656;2023-06-26T01:28:47;10.40;;;4.75;;
27543;SDS011;17996;51.056;3.656;2023-06-26T01:31:15;14.87;;;5.40;;
27543;SDS011;17996;51.056;3.656;2023-06-26T01:33:42;21.90;;;4.97;;
27543;SDS011;17996;51.056;3.656;2023-06-26T01:36:09;15.52;;;5.03;;
27543;SDS011;17996;51.056;3.656;2023-06-26T01:38:35;22.25;;;5.90;;
27543;SDS011;17996;51.056;3.656;2023-06-26T01:41:01;15.55;;;6.28;;
27543;SDS011;17996;51.056;3.656;2023-06-26T01:43:30;20.95;;;5.63;;
27543;SDS011;17996;51.056;3.656;2023-06-26T01:46:25;17.35;;;5.63;;
27543;SDS011;17996;51.056;3.656;2023-06-26T01:49:06;15.48;;;6.30;;
27543;SDS011;17996;51.056;3.656;2023-06-26T01:51:45;19.25;;;5.72;;
27543;SDS011;17996;51.056;3.656;2023-06-26T01:54:18;24.50;;;5.95;;
27543;SDS011;17996;51.056;3.656;2023-06-26T01:56:48;12.30;;;5.40;;
27543;SDS011;17996;51.056;3.656;2023-06-26T01:59:17;17.02;;;6.20;;
27543;SDS011;17996;51.056;3.656;2023-06-26T02:01:46;19.58;;;6.30;;
27543;SDS011;17996;51.056;3.656;2023-06-26T02:04:12;27.63;;;6.53;;
27543;SDS011;17996;51.056;3.656;2023-06-26T02:06:38;16.23;;;5.88;;
27543;SDS011;17996;51.056;3.656;2023-06-26T02:09:03;14.63;;;5.78;;
27543;SDS011;17996;51.056;3.656;2023-06-26T02:11:29;23.60;;;6.82;;
27543;SDS011;17996;51.056;3.656;2023-06-26T02:13:54;12.10;;;5.15;;
27543;SDS011;17996;51.056;3.656;2023-06-26T02:16:20;19.25;;;6.15;;
27543;SDS011;17996;51.056;3.656;2023-06-26T02:18:46;20.50;;;6.35;;
27543;SDS011;17996;51.056;3.656;2023-06-26T02:21:12;37.38;;;7.20;;
27543;SDS011;17996;51.056;3.656;2023-06-26T02:23:38;24.38;;;7.20;;
27543;SDS011;17996;51.056;3.656;2023-06-26T02:26:04;21.15;;;6.57;;
27543;SDS011;17996;51.056;3.656;2023-06-26T02:28:30;20.70;;;6.43;;
27543;SDS011;17996;51.056;3.656;2023-06-26T02:30:56;20.92;;;7.13;;
27543;SDS011;17996;51.056;3.656;2023-06-26T02:33:22;28.08;;;6.63;;
27543;SDS011;17996;51.056;3.656;2023-06-26T02:35:47;23.30;;;7.25;;
27543;SDS011;17996;51.056;3.656;2023-06-26T02:38:15;18.42;;;6.68;;
27543;SDS011;17996;51.056;3.656;2023-06-26T02:40:41;27.55;;;7.93;;
27543;SDS011;17996;51.056;3.656;2023-06-26T02:43:07;18.70;;;6.78;;
27543;SDS011;17996;51.056;3.656;2023-06-26T02:45:33;21.75;;;7.50;;
27543;SDS011;17996;51.056;3.656;2023-06-26T02:47:58;23.75;;;6.55;;
27543;SDS011;17996;51.056;3.656;2023-06-26T02:50:24;23.63;;;7.05;;
27543;SDS011;17996;51.056;3.656;2023-06-26T02:52:49;21.55;;;6.72;;
27543;SDS011;17996;51.056;3.656;2023-06-26T02:55:18;25.50;;;6.85;;
27543;SDS011;17996;51.056;3.656;2023-06-26T02:57:45;27.13;;;7.22;;
27543;SDS011;17996;51.056;3.656;2023-06-26T03:00:10;24.77;;;7.03;;
27543;SDS011;17996;51.056;3.656;2023-06-26T03:02:37;25.52;;;7.13;;
27543;SDS011;17996;51.056;3.656;2023-06-26T03:05:02;21.70;;;7.90;;
27543;SDS011;17996;51.056;3.656;2023-06-26T03:07:29;21.38;;;6.50;;
27543;SDS011;17996;51.056;3.656;2023-06-26T03:09:55;24.23;;;6.95;;
27543;SDS011;17996;51.056;3.656;2023-06-26T03:12:20;25.70;;;6.88;;
27543;SDS011;17996;51.056;3.656;2023-06-26T03:14:46;30.45;;;7.32;;
27543;SDS011;17996;51.056;3.656;2023-06-26T03:17:12;24.70;;;6.65;;
27543;SDS011;17996;51.056;3.656;2023-06-26T03:19:37;29.60;;;7.03;;
27543;SDS011;17996;51.056;3.656;2023-06-26T03:22:03;26.20;;;6.90;;
27543;SDS011;17996;51.056;3.656;2023-06-26T03:24:29;27.45;;;7.80;;
27543;SDS011;17996;51.056;3.656;2023-06-26T03:26:55;26.92;;;6.82;;
27543;SDS011;17996;51.056;3.656;2023-06-26T03:29:20;35.33;;;7.57;;
27543;SDS011;17996;51.056;3.656;2023-06-26T03:31:46;27.30;;;6.82;;
27543;SDS011;17996;51.056;3.656;2023-06-26T03:34:12;23.08;;;6.43;;
27543;SDS011;17996;51.056;3.656;2023-06-26T03:36:37;23.98;;;6.68;;
27543;SDS011;17996;51.056;3.656;2023-06-26T03:39:03;22.85;;;7.35;;
27543;SDS011;17996;51.056;3.656;2023-06-26T03:41:29;25.63;;;6.85;;
27543;SDS011;17996;51.056;3.656;2023-06-26T03:43:55;16.55;;;5.82;;
27543;SDS011;17996;51.056;3.656;2023-06-26T03:46:21;25.17;;;7.30;;
27543;SDS011;17996;51.056;3.656;2023-06-26T03:48:47;31.20;;;7.60;;
27543;SDS011;17996;51.056;3.656;2023-06-26T03:51:13;28.58;;;6.32;;
27543;SDS011;17996;51.056;3.656;2023-06-26T03:53:40;24.40;;;6.60;;
27543;SDS011;17996;51.056;3.656;2023-06-26T03:56:05;18.10;;;6.63;;
27543;SDS011;17996;51.056;3.656;2023-06-26T03:58:31;26.38;;;6.75;;
27543;SDS011;17996;51.056;3.656;2023-06-26T04:00:56;22.00;;;6.75;;
27543;SDS011;17996;51.056;3.656;2023-06-26T04:03:23;29.05;;;7.55;;
27543;SDS011;17996;51.056;3.656;2023-06-26T04:05:49;16.63;;;5.75;;
27543;SDS011;17996;51.056;3.656;2023-06-26T04:08:15;23.73;;;6.55;;
27543;SDS011;17996;51.056;3.656;2023-06-26T04:10:40;21.95;;;6.05;;
27543;SDS011;17996;51.056;3.656;2023-06-26T04:13:06;22.80;;;5.75;;
27543;SDS011;17996;51.056;3.656;2023-06-26T04:15:31;25.45;;;5.75;;
27543;SDS011;17996;51.056;3.656;2023-06-26T04:17:57;26.88;;;6.78;;
27543;SDS011;17996;51.056;3.656;2023-06-26T04:20:23;26.13;;;6.25;;
27543;SDS011;17996;51.056;3.656;2023-06-26T04:22:48;28.80;;;6.63;;
27543;SDS011;17996;51.056;3.656;2023-06-26T04:25:14;24.63;;;6.53;;
27543;SDS011;17996;51.056;3.656;2023-06-26T04:27:40;21.45;;;6.05;;
27543;SDS011;17996;51.056;3.656;2023-06-26T04:30:06;16.35;;;5.80;;
27543;SDS011;17996;51.056;3.656;2023-06-26T04:32:32;31.73;;;5.88;;
27543;SDS011;17996;51.056;3.656;2023-06-26T04:34:58;22.83;;;6.90;;
27543;SDS011;17996;51.056;3.656;2023-06-26T04:37:24;29.90;;;6.75;;
27543;SDS011;17996;51.056;3.656;2023-06-26T04:39:51;21.67;;;5.97;;
27543;SDS011;17996;51.056;3.656;2023-06-26T04:42:16;19.23;;;5.70;;
27543;SDS011;17996;51.056;3.656;2023-06-26T04:44:43;24.80;;;5.45;;
27543;SDS011;17996;51.056;3.656;2023-06-26T04:47:08;21.50;;;5.70;;
27543;SDS011;17996;51.056;3.656;2023-06-26T04:49:34;21.77;;;5.45;;
27543;SDS011;17996;51.056;3.656;2023-06-26T04:52:00;21.55;;;5.53;;
27543;SDS011;17996;51.056;3.656;2023-06-26T04:54:26;22.95;;;5.90;;
27543;SDS011;17996;51.056;3.656;2023-06-26T04:56:53;21.98;;;5.15;;
27543;SDS011;17996;51.056;3.656;2023-06-26T04:59:18;15.63;;;5.30;;
27543;SDS011;17996;51.056;3.656;2023-06-26T05:01:44;18.88;;;4.88;;
27543;SDS011;17996;51.056;3.656;2023-06-26T05:04:13;19.25;;;4.85;;
27543;SDS011;17996;51.056;3.656;2023-06-26T05:06:41;20.30;;;5.05;;
27543;SDS011;17996;51.056;3.656;2023-06-26T05:09:07;16.88;;;4.50;;
27543;SDS011;17996;51.056;3.656;2023-06-26T05:11:33;18.67;;;5.00;;
27543;SDS011;17996;51.056;3.656;2023-06-26T05:13:58;29.63;;;5.80;;
27543;SDS011;17996;51.056;3.656;2023-06-26T05:16:24;23.38;;;5.35;;
27543;SDS011;17996;51.056;3.656;2023-06-26T05:18:49;20.15;;;4.82;;
27543;SDS011;17996;51.056;3.656;2023-06-26T05:21:15;17.30;;;4.88;;
27543;SDS011;17996;51.056;3.656;2023-06-26T05:23:41;17.35;;;4.90;;
27543;SDS011;17996;51.056;3.656;2023-06-26T05:26:09;15.80;;;4.55;;
27543;SDS011;17996;51.056;3.656;2023-06-26T05:28:36;19.38;;;4.43;;
27543;SDS011;17996;51.056;3.656;2023-06-26T05:31:02;20.13;;;4.53;;
27543;SDS011;17996;51.056;3.656;2023-06-26T05:33:30;22.17;;;4.63;;
27543;SDS011;17996;51.056;3.656;2023-06-26T05:35:58;13.10;;;3.88;;
27543;SDS011;17996;51.056;3.656;2023-06-26T05:38:25;16.33;;;4.05;;
27543;SDS011;17996;51.056;3.656;2023-06-26T05:40:51;18.27;;;4.85;;
27543;SDS011;17996;51.056;3.656;2023-06-26T05:43:17;15.98;;;3.88;;
27543;SDS011;17996;51.056;3.656;2023-06-26T05:48:13;14.80;;;4.13;;
27543;SDS011;17996;51.056;3.656;2023-06-26T05:50:39;14.48;;;3.80;;
27543;SDS011;17996;51.056;3.656;2023-06-26T05:53:07;17.25;;;4.05;;
27543;SDS011;17996;51.056;3.656;2023-06-26T05:55:33;19.02;;;4.13;;
27543;SDS011;17996;51.056;3.656;2023-06-26T05:57:59;29.17;;;4.50;;
27543;SDS011;17996;51.056;3.656;2023-06-26T06:00:26;25.58;;;4.95;;
27543;SDS011;17996;51.056;3.656;2023-06-26T06:02:53;16.70;;;4.07;;
27543;SDS011;17996;51.056;3.656;2023-06-26T06:05:20;14.93;;;4.22;;
27543;SDS011;17996;51.056;3.656;2023-06-26T06:07:46;12.70;;;3.42;;
27543;SDS011;17996;51.056;3.656;2023-06-26T06:10:12;13.30;;;3.50;;
27543;SDS011;17996;51.056;3.656;2023-06-26T06:12:38;10.27;;;3.83;;
27543;SDS011;17996;51.056;3.656;2023-06-26T06:15:04;16.40;;;3.40;;
27543;SDS011;17996;51.056;3.656;2023-06-26T06:17:30;10.93;;;3.13;;
27543;SDS011;17996;51.056;3.656;2023-06-26T06:19:56;11.13;;;3.10;;
27543;SDS011;17996;51.056;3.656;2023-06-26T06:22:22;14.75;;;2.90;;
27543;SDS011;17996;51.056;3.656;2023-06-26T06:24:48;10.65;;;2.92;;
27543;SDS011;17996;51.056;3.656;2023-06-26T06:27:15;11.55;;;3.17;;
27543;SDS011;17996;51.056;3.656;2023-06-26T06:29:41;16.55;;;3.35;;
27543;SDS011;17996;51.056;3.656;2023-06-26T06:32:07;19.00;;;3.28;;
27543;SDS011;17996;51.056;3.656;2023-06-26T06:34:33;8.20;;;3.13;;
27543;SDS011;17996;51.056;3.656;2023-06-26T06:36:58;12.48;;;3.53;;
27543;SDS011;17996;51.056;3.656;2023-06-26T06:39:24;14.18;;;2.80;;
27543;SDS011;17996;51.056;3.656;2023-06-26T06:41:50;13.45;;;3.17;;
27543;SDS011;17996;51.056;3.656;2023-06-26T06:44:16;9.90;;;2.97;;
27543;SDS011;17996;51.056;3.656;2023-06-26T06:46:42;18.40;;;3.00;;
27543;SDS011;17996;51.056;3.656;2023-06-26T06:49:08;9.45;;;2.60;;
27543;SDS011;17996;51.056;3.656;2023-06-26T06:51:34;8.35;;;2.63;;
27543;SDS011;17996;51.056;3.656;2023-06-26T06:54:00;8.02;;;2.53;;
27543;SDS011;17996;51.056;3.656;2023-06-26T06:56:26;18.42;;;3.28;;
27543;SDS011;17996;51.056;3.656;2023-06-26T06:58:51;12.60;;;2.67;;
27543;SDS011;17996;51.056;3.656;2023-06-26T07:01:17;10.15;;;2.38;;
27543;SDS011;17996;51.056;3.656;2023-06-26T07:03:44;12.25;;;2.70;;
27543;SDS011;17996;51.056;3.656;2023-06-26T07:06:09;10.35;;;2.63;;
27543;SDS011;17996;51.056;3.656;2023-06-26T07:08:35;11.05;;;2.83;;
27543;SDS011;17996;51.056;3.656;2023-06-26T07:11:00;18.80;;;3.92;;
27543;SDS011;17996;51.056;3.656;2023-06-26T07:13:26;13.30;;;2.83;;
27543;SDS011;17996;51.056;3.656;2023-06-26T07:15:52;7.97;;;2.28;;
27543;SDS011;17996;51.056;3.656;2023-06-26T07:18:18;12.48;;;2.60;;
27543;SDS011;17996;51.056;3.656;2023-06-26T07:20:43;9.55;;;2.75;;
27543;SDS011;17996;51.056;3.656;2023-06-26T07:23:09;12.68;;;3.10;;
27543;SDS011;17996;51.056;3.656;2023-06-26T07:25:35;11.15;;;2.65;;
27543;SDS011;17996;51.056;3.656;2023-06-26T07:28:01;9.35;;;2.42;;
27543;SDS011;17996;51.056;3.656;2023-06-26T07:30:27;11.63;;;2.60;;
27543;SDS011;17996;51.056;3.656;2023-06-26T07:32:52;12.13;;;2.67;;
27543;SDS011;17996;51.056;3.656;2023-06-26T07:35:18;11.30;;;2.53;;
27543;SDS011;17996;51.056;3.656;2023-06-26T07:37:44;8.40;;;2.30;;
27543;SDS011;17996;51.056;3.656;2023-06-26T07:40:10;10.10;;;2.63;;
27543;SDS011;17996;51.056;3.656;2023-06-26T07:42:36;7.50;;;2.50;;
27543;SDS011;17996;51.056;3.656;2023-06-26T07:45:02;7.68;;;2.38;;
27543;SDS011;17996;51.056;3.656;2023-06-26T07:47:34;6.70;;;2.78;;
27543;SDS011;17996;51.056;3.656;2023-06-26T07:50:00;12.27;;;2.60;;
27543;SDS011;17996;51.056;3.656;2023-06-26T07:52:26;4.25;;;2.10;;
27543;SDS011;17996;51.056;3.656;2023-06-26T07:54:52;14.48;;;2.30;;
27543;SDS011;17996;51.056;3.656;2023-06-26T07:57:19;9.65;;;2.25;;
27543;SDS011;17996;51.056;3.656;2023-06-26T07:59:45;8.73;;;2.30;;
27543;SDS011;17996;51.056;3.656;2023-06-26T08:02:10;9.02;;;2.08;;
27543;SDS011;17996;51.056;3.656;2023-06-26T08:04:36;11.55;;;2.72;;
27543;SDS011;17996;51.056;3.656;2023-06-26T08:07:02;11.88;;;2.17;;
27543;SDS011;17996;51.056;3.656;2023-06-26T08:09:29;11.93;;;1.88;;
27543;SDS011;17996;51.056;3.656;2023-06-26T08:11:55;8.50;;;2.70;;
27543;SDS011;17996;51.056;3.656;2023-06-26T08:14:22;11.05;;;2.45;;
27543;SDS011;17996;51.056;3.656;2023-06-26T08:16:48;8.15;;;2.88;;
27543;SDS011;17996;51.056;3.656;2023-06-26T08:19:14;5.70;;;2.15;;
27543;SDS011;17996;51.056;3.656;2023-06-26T08:21:41;8.55;;;2.38;;
27543;SDS011;17996;51.056;3.656;2023-06-26T08:24:08;11.52;;;2.15;;
27543;SDS011;17996;51.056;3.656;2023-06-26T08:26:34;7.75;;;2.03;;
27543;SDS011;17996;51.056;3.656;2023-06-26T08:29:00;9.88;;;2.58;;
27543;SDS011;17996;51.056;3.656;2023-06-26T08:31:32;7.57;;;1.77;;
27543;SDS011;17996;51.056;3.656;2023-06-26T08:33:59;7.28;;;2.05;;
27543;SDS011;17996;51.056;3.656;2023-06-26T08:36:25;10.13;;;2.55;;
27543;SDS011;17996;51.056;3.656;2023-06-26T08:38:51;16.33;;;3.13;;
27543;SDS011;17996;51.056;3.656;2023-06-26T08:41:17;9.38;;;2.30;;
27543;SDS011;17996;51.056;3.656;2023-06-26T08:43:43;7.60;;;1.88;;
27543;SDS011;17996;51.056;3.656;2023-06-26T08:46:09;5.38;;;1.88;;
27543;SDS011;17996;51.056;3.656;2023-06-26T08:48:35;8.30;;;2.40;;
27543;SDS011;17996;51.056;3.656;2023-06-26T08:51:11;7.97;;;1.70;;
27543;SDS011;17996;51.056;3.656;2023-06-26T08:56:24;12.85;;;2.15;;
27543;SDS011;17996;51.056;3.656;2023-06-26T09:01:18;8.23;;;2.20;;
27543;SDS011;17996;51.056;3.656;2023-06-26T09:03:44;9.77;;;2.15;;
27543;SDS011;17996;51.056;3.656;2023-06-26T09:06:10;8.90;;;2.40;;
27543;SDS011;17996;51.056;3.656;2023-06-26T09:08:36;9.07;;;1.73;;
27543;SDS011;17996;51.056;3.656;2023-06-26T09:11:01;7.10;;;1.98;;
27543;SDS011;17996;51.056;3.656;2023-06-26T09:13:30;9.05;;;2.17;;
27543;SDS011;17996;51.056;3.656;2023-06-26T09:15:56;9.80;;;2.75;;
27543;SDS011;17996;51.056;3.656;2023-06-26T09:18:22;10.40;;;2.80;;
27543;SDS011;17996;51.056;3.656;2023-06-26T09:20:48;11.90;;;2.88;;
27543;SDS011;17996;51.056;3.656;2023-06-26T09:23:15;8.45;;;2.15;;
27543;SDS011;17996;51.056;3.656;2023-06-26T09:25:41;10.77;;;2.22;;
27543;SDS011;17996;51.056;3.656;2023-06-26T09:28:07;7.63;;;2.13;;
27543;SDS011;17996;51.056;3.656;2023-06-26T09:30:34;11.55;;;2.28;;
27543;SDS011;17996;51.056;3.656;2023-06-26T09:33:16;8.73;;;2.25;;
27543;SDS011;17996;51.056;3.656;2023-06-26T09:35:44;6.28;;;1.73;;
27543;SDS011;17996;51.056;3.656;2023-06-26T09:38:11;4.55;;;1.58;;
27543;SDS011;17996;51.056;3.656;2023-06-26T09:40:38;11.85;;;2.17;;
27543;SDS011;17996;51.056;3.656;2023-06-26T09:43:04;15.10;;;2.00;;
27543;SDS011;17996;51.056;3.656;2023-06-26T09:45:34;12.60;;;2.35;;
27543;SDS011;17996;51.056;3.656;2023-06-26T09:48:01;10.45;;;2.45;;
27543;SDS011;17996;51.056;3.656;2023-06-26T09:50:33;14.43;;;2.38;;
27543;SDS011;17996;51.056;3.656;2023-06-26T09:53:06;6.82;;;1.92;;
27543;SDS011;17996;51.056;3.656;2023-06-26T09:55:36;7.47;;;2.20;;
27543;SDS011;17996;51.056;3.656;2023-06-26T09:58:02;6.35;;;2.10;;
27543;SDS011;17996;51.056;3.656;2023-06-26T10:00:30;11.60;;;2.53;;
27543;SDS011;17996;51.056;3.656;2023-06-26T10:02:56;6.78;;;1.83;;
27543;SDS011;17996;51.056;3.656;2023-06-26T10:05:23;8.32;;;1.70;;
27543;SDS011;17996;51.056;3.656;2023-06-26T10:07:48;5.65;;;1.58;;
27543;SDS011;17996;51.056;3.656;2023-06-26T10:10:15;7.28;;;1.95;;
27543;SDS011;17996;51.056;3.656;2023-06-26T10:12:42;5.75;;;1.83;;
27543;SDS011;17996;51.056;3.656;2023-06-26T10:15:10;5.78;;;2.17;;
27543;SDS011;17996;51.056;3.656;2023-06-26T10:17:39;8.73;;;3.25;;
27543;SDS011;17996;51.056;3.656;2023-06-26T10:20:07;10.23;;;1.88;;
27543;SDS011;17996;51.056;3.656;2023-06-26T10:22:37;9.48;;;2.10;;
27543;SDS011;17996;51.056;3.656;2023-06-26T10:25:08;7.68;;;1.80;;
27543;SDS011;17996;51.056;3.656;2023-06-26T10:27:36;9.77;;;2.42;;
27543;SDS011;17996;51.056;3.656;2023-06-26T10:30:16;8.63;;;2.10;;
27543;SDS011;17996;51.056;3.656;2023-06-26T10:32:46;11.63;;;2.65;;
27543;SDS011;17996;51.056;3.656;2023-06-26T10:35:12;7.43;;;2.03;;
27543;SDS011;17996;51.056;3.656;2023-06-26T10:37:48;8.02;;;1.73;;
27543;SDS011;17996;51.056;3.656;2023-06-26T10:40:15;4.45;;;1.80;;
27543;SDS011;17996;51.056;3.656;2023-06-26T10:42:47;8.75;;;2.22;;
27543;SDS011;17996;51.056;3.656;2023-06-26T10:45:16;8.52;;;1.90;;
27543;SDS011;17996;51.056;3.656;2023-06-26T10:47:46;11.43;;;2.25;;
27543;SDS011;17996;51.056;3.656;2023-06-26T10:50:17;7.65;;;2.08;;
27543;SDS011;17996;51.056;3.656;2023-06-26T10:52:54;8.75;;;2.75;;
27543;SDS011;17996;51.056;3.656;2023-06-26T10:55:32;15.68;;;2.00;;
27543;SDS011;17996;51.056;3.656;2023-06-26T10:57:57;8.07;;;2.10;;
27543;SDS011;17996;51.056;3.656;2023-06-26T11:00:23;6.18;;;1.90;;
27543;SDS011;17996;51.056;3.656;2023-06-26T11:02:49;6.13;;;2.08;;
27543;SDS011;17996;51.056;3.656;2023-06-26T11:05:25;9.90;;;2.38;;
27543;SDS011;17996;51.056;3.656;2023-06-26T11:13:20;12.60;;;1.95;;
27543;SDS011;17996;51.056;3.656;2023-06-26T11:15:46;8.50;;;2.10;;
27543;SDS011;17996;51.056;3.656;2023-06-26T11:18:12;7.47;;;2.15;;
27543;SDS011;17996;51.056;3.656;2023-06-26T11:20:39;10.60;;;2.08;;
27543;SDS011;17996;51.056;3.656;2023-06-26T11:23:05;8.38;;;2.20;;
27543;SDS011;17996;51.056;3.656;2023-06-26T11:25:34;6.07;;;1.80;;
27543;SDS011;17996;51.056;3.656;2023-06-26T11:28:00;9.88;;;2.22;;
27543;SDS011;17996;51.056;3.656;2023-06-26T11:30:26;5.03;;;1.63;;
27543;SDS011;17996;51.056;3.656;2023-06-26T11:32:52;11.77;;;2.13;;
27543;SDS011;17996;51.056;3.656;2023-06-26T11:35:24;8.45;;;2.40;;
27543;SDS011;17996;51.056;3.656;2023-06-26T11:37:59;6.60;;;1.40;;
27543;SDS011;17996;51.056;3.656;2023-06-26T11:40:29;7.07;;;2.13;;
27543;SDS011;17996;51.056;3.656;2023-06-26T11:45:24;3.58;;;1.60;;
27543;SDS011;17996;51.056;3.656;2023-06-26T11:47:52;6.10;;;1.67;;
27543;SDS011;17996;51.056;3.656;2023-06-26T11:52:52;7.82;;;2.10;;
27543;SDS011;17996;51.056;3.656;2023-06-26T11:55:19;9.73;;;1.83;;
27543;SDS011;17996;51.056;3.656;2023-06-26T11:57:49;4.95;;;1.83;;
27543;SDS011;17996;51.056;3.656;2023-06-26T12:00:15;7.20;;;2.22;;
27543;SDS011;17996;51.056;3.656;2023-06-26T12:02:42;5.60;;;2.40;;
27543;SDS011;17996;51.056;3.656;2023-06-26T12:05:09;8.27;;;1.90;;
27543;SDS011;17996;51.056;3.656;2023-06-26T12:07:36;5.80;;;2.47;;
27543;SDS011;17996;51.056;3.656;2023-06-26T12:10:02;3.92;;;1.73;;
27543;SDS011;17996;51.056;3.656;2023-06-26T12:12:30;9.52;;;2.00;;
27543;SDS011;17996;51.056;3.656;2023-06-26T12:14:56;8.80;;;2.15;;
27543;SDS011;17996;51.056;3.656;2023-06-26T12:17:23;11.02;;;2.08;;
27543;SDS011;17996;51.056;3.656;2023-06-26T12:19:50;7.93;;;1.95;;
27543;SDS011;17996;51.056;3.656;2023-06-26T12:22:16;7.60;;;2.10;;
27543;SDS011;17996;51.056;3.656;2023-06-26T12:24:43;6.32;;;2.10;;
27543;SDS011;17996;51.056;3.656;2023-06-26T12:27:10;5.47;;;1.83;;
27543;SDS011;17996;51.056;3.656;2023-06-26T12:29:37;8.00;;;2.10;;
27543;SDS011;17996;51.056;3.656;2023-06-26T12:32:07;7.85;;;1.90;;
27543;SDS011;17996;51.056;3.656;2023-06-26T12:34:35;10.10;;;2.58;;
27543;SDS011;17996;51.056;3.656;2023-06-26T12:37:02;13.07;;;2.80;;
27543;SDS011;17996;51.056;3.656;2023-06-26T12:39:29;5.65;;;2.00;;
27543;SDS011;17996;51.056;3.656;2023-06-26T12:42:09;8.68;;;2.05;;
27543;SDS011;17996;51.056;3.656;2023-06-26T12:44:42;9.25;;;2.38;;
27543;SDS011;17996;51.056;3.656;2023-06-26T12:47:08;8.52;;;1.80;;
27543;SDS011;17996;51.056;3.656;2023-06-26T12:49:35;5.00;;;1.80;;
27543;SDS011;17996;51.056;3.656;2023-06-26T12:52:04;5.40;;;1.95;;
27543;SDS011;17996;51.056;3.656;2023-06-26T12:54:31;7.70;;;2.25;;
27543;SDS011;17996;51.056;3.656;2023-06-26T12:56:59;11.55;;;3.13;;
27543;SDS011;17996;51.056;3.656;2023-06-26T12:59:24;13.73;;;2.20;;
27543;SDS011;17996;51.056;3.656;2023-06-26T13:01:50;7.30;;;2.05;;
27543;SDS011;17996;51.056;3.656;2023-06-26T13:04:16;7.55;;;2.13;;
27543;SDS011;17996;51.056;3.656;2023-06-26T13:06:42;6.40;;;1.75;;
27543;SDS011;17996;51.056;3.656;2023-06-26T13:09:08;10.88;;;2.20;;
27543;SDS011;17996;51.056;3.656;2023-06-26T13:11:34;6.40;;;1.90;;
27543;SDS011;17996;51.056;3.656;2023-06-26T13:14:01;3.67;;;1.50;;
27543;SDS011;17996;51.056;3.656;2023-06-26T13:16:27;5.55;;;1.73;;
27543;SDS011;17996;51.056;3.656;2023-06-26T13:18:52;8.43;;;2.53;;
27543;SDS011;17996;51.056;3.656;2023-06-26T13:21:18;8.63;;;2.10;;
27543;SDS011;17996;51.056;3.656;2023-06-26T13:23:44;6.50;;;1.98;;
27543;SDS011;17996;51.056;3.656;2023-06-26T13:26:10;3.40;;;1.50;;
27543;SDS011;17996;51.056;3.656;2023-06-26T13:28:36;7.55;;;2.15;;
27543;SDS011;17996;51.056;3.656;2023-06-26T13:31:02;4.25;;;1.50;;
27543;SDS011;17996;51.056;3.656;2023-06-26T13:33:29;8.65;;;1.90;;
27543;SDS011;17996;51.056;3.656;2023-06-26T13:35:55;5.93;;;1.70;;
27543;SDS011;17996;51.056;3.656;2023-06-26T13:38:22;5.97;;;2.03;;
27543;SDS011;17996;51.056;3.656;2023-06-26T13:40:54;5.55;;;1.77;;
27543;SDS011;17996;51.056;3.656;2023-06-26T13:43:24;2.88;;;1.25;;
27543;SDS011;17996;51.056;3.656;2023-06-26T13:45:50;5.57;;;1.55;;
27543;SDS011;17996;51.056;3.656;2023-06-26T13:48:15;3.33;;;1.77;;
27543;SDS011;17996;51.056;3.656;2023-06-26T13:50:41;6.78;;;1.70;;
27543;SDS011;17996;51.056;3.656;2023-06-26T13:53:07;4.03;;;1.40;;
27543;SDS011;17996;51.056;3.656;2023-06-26T13:55:33;5.45;;;1.90;;
27543;SDS011;17996;51.056;3.656;2023-06-26T13:57:59;5.20;;;1.50;;
27543;SDS011;17996;51.056;3.656;2023-06-26T14:00:29;7.95;;;1.77;;
27543;SDS011;17996;51.056;3.656;2023-06-26T14:02:54;6.97;;;2.45;;
27543;SDS011;17996;51.056;3.656;2023-06-26T14:05:21;5.00;;;1.85;;
27543;SDS011;17996;51.056;3.656;2023-06-26T14:07:47;8.38;;;1.60;;
27543;SDS011;17996;51.056;3.656;2023-06-26T14:10:13;4.63;;;1.55;;
27543;SDS011;17996;51.056;3.656;2023-06-26T14:12:40;7.60;;;1.83;;
27543;SDS011;17996;51.056;3.656;2023-06-26T14:15:06;4.40;;;1.70;;
27543;SDS011;17996;51.056;3.656;2023-06-26T14:17:32;6.50;;;1.77;;
27543;SDS011;17996;51.056;3.656;2023-06-26T14:19:58;5.55;;;1.40;;
27543;SDS011;17996;51.056;3.656;2023-06-26T14:22:24;4.30;;;1.67;;
27543;SDS011;17996;51.056;3.656;2023-06-26T14:24:50;6.43;;;1.70;;
27543;SDS011;17996;51.056;3.656;2023-06-26T14:27:16;10.35;;;2.60;;
27543;SDS011;17996;51.056;3.656;2023-06-26T14:29:41;7.95;;;2.55;;
27543;SDS011;17996;51.056;3.656;2023-06-26T14:32:07;8.93;;;2.35;;
27543;SDS011;17996;51.056;3.656;2023-06-26T14:34:33;11.68;;;1.80;;
27543;SDS011;17996;51.056;3.656;2023-06-26T14:36:58;6.15;;;1.92;;
27543;SDS011;17996;51.056;3.656;2023-06-26T14:39:24;8.35;;;1.70;;
27543;SDS011;17996;51.056;3.656;2023-06-26T14:41:50;4.13;;;1.70;;
27543;SDS011;17996;51.056;3.656;2023-06-26T14:44:16;6.43;;;1.88;;
27543;SDS011;17996;51.056;3.656;2023-06-26T14:46:41;8.07;;;1.60;;
27543;SDS011;17996;51.056;3.656;2023-06-26T14:49:07;11.25;;;1.95;;
27543;SDS011;17996;51.056;3.656;2023-06-26T14:51:33;7.15;;;1.77;;
27543;SDS011;17996;51.056;3.656;2023-06-26T14:53:59;7.65;;;2.05;;
27543;SDS011;17996;51.056;3.656;2023-06-26T14:56:25;6.53;;;1.95;;
27543;SDS011;17996;51.056;3.656;2023-06-26T14:58:51;5.93;;;2.00;;
27543;SDS011;17996;51.056;3.656;2023-06-26T15:01:17;5.35;;;2.08;;